UWWW

Kurumoch International Airport

Samara, Russian Federation
TAF UWWW 210800Z 2109/2209 07006G12MPS 9999 BKN011 OVC100 TX26/2111Z TN19/2202Z TEMPO 2109/2118 VRB15MPS 3100 -TSRA BKN007 BKN013CB TEMPO 2118/2204 3100 -SHRA BR BKN011CB BECMG 2204/2206 09008G14MPS
Issued Valid From Valid To
Jul-21 @ 08:00 UTC
(2 hours ago)
Jul-21 @ 09:00 UTC
(57 minutes ago)
Jul-22 @ 09:00 UTC
(in 23 hours)
Jul-21 @ 09:00 to Jul-22 @ 04:00
TAF UWWW 210800Z 2109/2209 07006G12MPS 9999 BKN011 OVC100 TX26/2111Z TN19/2202Z
Wind Visibility Clouds
70° at 12 knots
 Gusting to 23 knots
10,000+ meters
  • Broken at 1,100' AGL
  • Overcast at 10,000' AGL
Temporary Jul-21 @ 09:00 to Jul-21 @ 18:00
TEMPO 2109/2118 VRB15MPS 3100 -TSRA BKN007 BKN013CB
Wind Visibility Clouds Conditions
Variable at 29 knots 3,106 meters
  • Broken at 700' AGL
  • Broken at 1,300' AGL
  • Light Thunderstorm
  • Light Rain
Temporary Jul-21 @ 18:00 to Jul-22 @ 04:00
TEMPO 2118/2204 3100 -SHRA BR BKN011CB
Visibility Clouds Conditions
3,106 meters
  • Broken at 1,100' AGL
  • Light Rain
  • Mist
Becoming Jul-22 @ 04:00 to Jul-22 @ 09:00
BECMG 2204/2206 09008G14MPS
Wind Visibility Clouds
90° at 16 knots
 Gusting to 27 knots
10,000+ meters
  • Broken at 1,100' AGL
  • Overcast at 10,000' AGL
TAF UWWW 210800Z 2109/2209 07006G12MPS 9999 BKN011 OVC100 TX26/2111Z TN19/2202Z TEMPO 2109/2118 VRB15MPS 3100 -TSRA BKN007 BKN013CB TEMPO 2118/2204 3100 -SHRA BR BKN011CB BECMG 2204/2206 09008G14MPS
Issued Jul-21 @ 08:00 UTC
(2 hours ago)
Valid From Jul-21 @ 09:00 UTC
(57 minutes ago)
Valid To Jul-22 @ 09:00 UTC
(in 23 hours)
Jul-21 @ 09:00 - Jul-22 @ 04:00
Wind Visibility
70° at 12 knots
 Gusting to 23 knots
10,000+ meters
Clouds
  • Broken at 1,100' AGL
  • Overcast at 10,000' AGL
Temporary Jul-21 @ 09:00 - Jul-21 @ 18:00
Wind Visibility
Variable at 29 knots 3,106 meters
Clouds
  • Broken at 700' AGL
  • Broken at 1,300' AGL
Conditions
  • Light Thunderstorm
  • Light Rain
Temporary Jul-21 @ 18:00 - Jul-22 @ 04:00
Clouds
  • Broken at 1,100' AGL
Conditions
  • Light Rain
  • Mist
Becoming Jul-22 @ 04:00 - Jul-22 @ 09:00
Wind Visibility
90° at 16 knots
 Gusting to 27 knots
10,000+ meters
Clouds
  • Broken at 1,100' AGL
  • Overcast at 10,000' AGL